createdAt,value
2022-10-22T00:00:08.738Z,97690.47
2022-10-22T00:02:36.023Z,97688.31
2022-10-22T00:05:04.232Z,97691.22
2022-10-22T00:07:31.661Z,97686.66
2022-10-22T00:09:59.137Z,97692.88
2022-10-22T00:12:26.873Z,97687.94
2022-10-22T00:14:54.024Z,97682.25
2022-10-22T00:17:21.520Z,97679.88
2022-10-22T00:19:48.849Z,97677.31
2022-10-22T00:22:16.288Z,97679.66
2022-10-22T00:24:44.043Z,97680.22
2022-10-22T00:27:12.389Z,97693.22
2022-10-22T00:29:39.950Z,97687.72
2022-10-22T00:32:07.786Z,97695.97
2022-10-22T00:34:35.087Z,97704.19
2022-10-22T00:37:02.238Z,97696.69
2022-10-22T00:39:29.819Z,97705.66
2022-10-22T00:41:58.231Z,97705.66
2022-10-22T00:45:03.081Z,97695.63
2022-10-22T00:47:39.686Z,97700.16
2022-10-22T00:50:12.128Z,97693.94
2022-10-22T00:52:40.217Z,97703.47
2022-10-22T00:55:08.002Z,97696.69
2022-10-22T00:57:35.830Z,97699.97
2022-10-22T01:00:04.767Z,97698.53
2022-10-22T01:02:39.796Z,97704.34
2022-10-22T01:05:07.634Z,97705.63
2022-10-22T01:07:41.129Z,97704.16
2022-10-22T01:10:12.639Z,97695.94
2022-10-22T01:12:58.325Z,97694.09
2022-10-22T01:15:34.033Z,97686.41
2022-10-22T01:18:10.624Z,97690.97
2022-10-22T01:20:49.905Z,97684.94
2022-10-22T01:23:50.779Z,97684.03
2022-10-22T01:26:32.507Z,97699.22
2022-10-22T01:29:07.616Z,97684.22
2022-10-22T01:31:45.646Z,97686.97
2022-10-22T01:34:15.267Z,97683.66
2022-10-22T01:36:42.954Z,97683.13
2022-10-22T01:39:11.048Z,97696.47
2022-10-22T01:41:39.400Z,97692.44
2022-10-22T01:44:06.516Z,97685.13
2022-10-22T01:46:33.946Z,97692.63
2022-10-22T01:49:28.054Z,97691.34
2022-10-22T01:52:34.225Z,97684.41
2022-10-22T01:55:28.340Z,97674.88
2022-10-22T01:58:03.630Z,97672.13
2022-10-22T02:00:30.856Z,97678.19
2022-10-22T02:03:04.930Z,97673.41
2022-10-22T02:05:41.297Z,97671.03
2022-10-22T02:08:10.501Z,97670.31
2022-10-22T02:10:39.653Z,97677.25
2022-10-22T02:13:13.453Z,97684.75
2022-10-22T02:15:42.052Z,97676.53
2022-10-22T02:18:09.808Z,97678.72
2022-10-22T02:20:38.921Z,97679.47
2022-10-22T02:23:06.206Z,97677.25
2022-10-22T02:25:39.758Z,97679.81
2022-10-22T02:28:16.982Z,97674.34
2022-10-22T02:30:48.194Z,97667.75
2022-10-22T02:33:22.107Z,97667.00
2022-10-22T02:35:49.937Z,97658.22
2022-10-22T02:38:17.496Z,97666.13
2022-10-22T02:40:44.924Z,97667.59
2022-10-22T02:43:12.034Z,97668.50
2022-10-22T02:45:39.159Z,97664.66
2022-10-22T02:48:06.484Z,97672.38
2022-10-22T02:50:33.660Z,97661.59
2022-10-22T02:53:00.781Z,97662.50
2022-10-22T02:55:28.037Z,97667.66
2022-10-22T02:57:55.128Z,97671.31
2022-10-22T03:00:22.661Z,97675.19
2022-10-22T03:02:49.889Z,97666.56
2022-10-22T03:05:17.081Z,97679.56
2022-10-22T03:07:44.241Z,97673.72
2022-10-22T03:10:11.398Z,97665.13
2022-10-22T03:12:38.557Z,97671.34
2022-10-22T03:15:06.099Z,97686.00
2022-10-22T03:17:33.195Z,97685.44
2022-10-22T03:20:00.295Z,97682.34
2022-10-22T03:22:29.291Z,97692.25
2022-10-22T03:24:59.387Z,97690.94
2022-10-22T03:27:28.400Z,97684.91
2022-10-22T03:29:57.021Z,97685.13
2022-10-22T03:32:24.253Z,97684.00
2022-10-22T03:34:51.456Z,97685.47
2022-10-22T03:37:18.729Z,97688.41
2022-10-22T03:39:46.044Z,97679.09
2022-10-22T03:42:13.539Z,97680.00
2022-10-22T03:44:41.149Z,97671.41
2022-10-22T03:47:08.337Z,97674.34
2022-10-22T03:49:35.922Z,97676.19
2022-10-22T03:52:11.859Z,97668.66
2022-10-22T03:54:40.049Z,97669.41
2022-10-22T03:57:07.242Z,97674.34
2022-10-22T03:59:42.720Z,97677.81
2022-10-22T04:02:11.024Z,97674.50
2022-10-22T04:04:39.594Z,97678.00
2022-10-22T04:07:07.307Z,97686.78
2022-10-22T04:09:35.086Z,97686.06
2022-10-22T04:12:02.314Z,97684.22
2022-10-22T04:14:29.422Z,97690.09
2022-10-22T04:16:56.568Z,97684.78
2022-10-22T04:19:23.752Z,97683.13
2022-10-22T04:21:50.875Z,97695.94
2022-10-22T04:24:18.147Z,97690.44
2022-10-22T04:26:45.301Z,97695.22
2022-10-22T04:29:15.959Z,97703.28
2022-10-22T04:31:43.684Z,97699.25
2022-10-22T04:34:10.841Z,97708.94
2022-10-22T04:36:38.074Z,97699.25
2022-10-22T04:39:06.099Z,97694.31
2022-10-22T04:41:36.137Z,97693.00
2022-10-22T04:44:03.916Z,97695.22
2022-10-22T04:46:33.511Z,97685.69
2022-10-22T04:49:01.071Z,97675.25
2022-10-22T04:51:28.296Z,97684.03
2022-10-22T04:53:55.418Z,97690.28
2022-10-22T04:56:25.574Z,97680.00
2022-10-22T04:59:15.183Z,97678.16
2022-10-22T05:01:44.097Z,97675.06
2022-10-22T05:04:13.170Z,97679.66
2022-10-22T05:06:40.461Z,97687.53
2022-10-22T05:09:13.975Z,97682.22
2022-10-22T05:11:45.325Z,97675.81
2022-10-22T05:14:12.582Z,97681.88
2022-10-22T05:16:40.032Z,97702.38
2022-10-22T05:19:08.068Z,97701.66
2022-10-22T05:21:37.615Z,97700.75
2022-10-22T05:24:05.100Z,97704.94
2022-10-22T05:26:32.244Z,97716.53
2022-10-22T05:28:59.424Z,97711.38
2022-10-22T05:31:28.773Z,97711.94
2022-10-22T05:33:55.937Z,97713.41
2022-10-22T05:36:23.385Z,97714.69
2022-10-22T05:38:50.638Z,97719.06
2022-10-22T05:41:25.339Z,97722.53
2022-10-22T05:43:55.775Z,97717.03
2022-10-22T05:46:24.538Z,97711.75
2022-10-22T05:48:56.698Z,97724.94
2022-10-22T05:51:24.783Z,97717.03
2022-10-22T05:53:55.818Z,97722.19
2022-10-22T05:56:23.344Z,97730.06
2022-10-22T05:58:50.741Z,97739.97
2022-10-22T06:01:29.055Z,97731.72
2022-10-22T06:04:00.725Z,97739.59
2022-10-22T06:06:34.060Z,97743.25
2022-10-22T06:09:16.478Z,97746.56
2022-10-22T06:11:43.661Z,97747.44
2022-10-22T06:14:11.066Z,97755.91
2022-10-22T06:16:38.537Z,97759.41
2022-10-22T06:19:05.702Z,97765.06
2022-10-22T06:21:33.130Z,97776.81
2022-10-22T06:24:01.028Z,97793.31
2022-10-22T06:26:28.379Z,97793.72
2022-10-22T06:28:56.177Z,97796.63
2022-10-22T06:31:24.108Z,97804.00
2022-10-22T06:33:51.240Z,97818.28
2022-10-22T06:36:20.559Z,97808.56
2022-10-22T06:38:47.877Z,97813.16
2022-10-22T06:41:16.377Z,97814.25
2022-10-22T06:43:47.709Z,97819.22
2022-10-22T06:46:19.837Z,97825.63
2022-10-22T06:48:55.302Z,97825.25
2022-10-22T06:51:22.587Z,97838.47
2022-10-22T06:53:49.939Z,97850.19
2022-10-22T06:56:19.140Z,97850.88
2022-10-22T06:58:53.593Z,97852.88
2022-10-22T07:01:23.372Z,97857.06
2022-10-22T07:03:51.864Z,97868.25
2022-10-22T07:06:20.164Z,97871.34
2022-10-22T07:08:47.476Z,97887.47
2022-10-22T07:11:19.655Z,97893.50
2022-10-22T07:13:47.035Z,97917.50
2022-10-22T07:16:14.722Z,97923.00
2022-10-22T07:18:42.249Z,97923.00
2022-10-22T07:21:11.307Z,97918.59
2022-10-22T07:23:38.595Z,97922.97
2022-10-22T07:26:07.492Z,97930.28
2022-10-22T07:28:39.829Z,97938.34
2022-10-22T07:31:08.879Z,97933.56
2022-10-22T07:33:36.241Z,97944.00
2022-10-22T07:36:06.707Z,97946.56
2022-10-22T07:38:35.027Z,97943.84
2022-10-22T07:41:02.787Z,97959.59
2022-10-22T07:43:29.823Z,97950.94
2022-10-22T07:45:56.874Z,97952.22
2022-10-22T07:48:24.089Z,97958.81
2022-10-22T07:50:51.497Z,97957.16
2022-10-22T07:53:18.898Z,97963.72
2022-10-22T07:55:49.008Z,97956.56
2022-10-22T07:58:17.382Z,97956.91
2022-10-22T08:00:45.081Z,97964.22
2022-10-22T08:03:13.179Z,97963.09
2022-10-22T08:05:40.967Z,97962.69
2022-10-22T08:08:08.058Z,97961.78
2022-10-22T08:10:35.345Z,97955.31
2022-10-22T08:13:02.649Z,97942.13
2022-10-22T08:15:30.223Z,97947.97
2022-10-22T08:17:57.304Z,97942.81
2022-10-22T08:20:24.693Z,97947.56
2022-10-22T08:22:51.976Z,97945.03
2022-10-22T08:25:19.143Z,97952.75
2022-10-22T08:27:46.248Z,97943.22
2022-10-22T08:30:13.856Z,97937.72
2022-10-22T08:32:41.788Z,97943.41
2022-10-22T08:35:09.844Z,97946.56
2022-10-22T08:37:37.519Z,97944.00
2022-10-22T08:40:08.855Z,97941.44
2022-10-22T08:42:45.148Z,97932.13
2022-10-22T08:45:15.809Z,97924.28
2022-10-22T08:48:01.398Z,97935.66
2022-10-22T08:50:46.976Z,97934.03
2022-10-22T08:53:56.734Z,97922.91
2022-10-22T08:56:24.408Z,97921.06
2022-10-22T08:59:19.092Z,97924.56
2022-10-22T09:01:50.099Z,97918.38
2022-10-22T09:04:44.419Z,97924.81
2022-10-22T09:07:11.477Z,97919.34
2022-10-22T09:09:42.754Z,97924.88
2022-10-22T09:12:19.343Z,97929.28
2022-10-22T09:14:47.514Z,97938.09
2022-10-22T09:17:44.516Z,97931.72
2022-10-22T09:20:16.945Z,97927.88
2022-10-22T09:23:06.295Z,97928.03
2022-10-22T09:25:36.015Z,97933.41
2022-10-22T09:28:03.790Z,97925.56
2022-10-22T09:30:35.155Z,97930.69
2022-10-22T09:33:07.098Z,97911.81
2022-10-22T09:35:44.082Z,97931.59
2022-10-22T09:38:13.703Z,97932.72
2022-10-22T09:40:52.181Z,97931.28
2022-10-22T09:43:19.825Z,97928.53
2022-10-22T09:45:48.193Z,97921.75
2022-10-22T09:48:15.139Z,97901.75
2022-10-22T09:50:48.172Z,97909.81
2022-10-22T09:53:23.672Z,97911.28
2022-10-22T09:58:28.785Z,97914.56
2022-10-22T10:00:57.887Z,97923.22
2022-10-22T10:03:28.643Z,97924.34
2022-10-22T10:06:02.988Z,97924.13
2022-10-22T10:08:33.490Z,97937.91
2022-10-22T10:11:25.527Z,97937.91
2022-10-22T10:14:07.466Z,97952.44
2022-10-22T10:16:55.981Z,97949.28
2022-10-22T10:19:26.924Z,97951.13
2022-10-22T10:22:18.795Z,97953.69
2022-10-22T10:24:51.075Z,97959.19
2022-10-22T10:27:54.816Z,97957.88
2022-10-22T10:30:25.927Z,97966.13
2022-10-22T10:33:16.299Z,97969.25
2022-10-22T10:35:49.000Z,97968.88
2022-10-22T10:38:34.942Z,97974.22
2022-10-22T10:41:23.815Z,97982.31
2022-10-22T10:43:58.421Z,97990.75
2022-10-22T10:46:41.216Z,97987.81
2022-10-22T10:49:17.470Z,97987.09
2022-10-22T10:52:17.398Z,97976.97
2022-10-22T10:55:03.930Z,97977.34
2022-10-22T10:57:52.786Z,97970.28
2022-10-22T11:00:21.212Z,97977.78
2022-10-22T11:03:10.315Z,97974.56
2022-10-22T11:06:00.353Z,97971.91
2022-10-22T11:08:32.696Z,97967.09
2022-10-22T11:11:11.540Z,97973.16
2022-10-22T11:13:42.840Z,97977.94
2022-10-22T11:16:31.163Z,97981.97
2022-10-22T11:19:46.054Z,97966.47
2022-10-22T11:22:27.143Z,97969.28
2022-10-22T11:25:05.343Z,97965.53
2022-10-22T11:27:42.954Z,97960.75
2022-10-22T11:30:19.698Z,97965.34
2022-10-22T11:32:52.998Z,97973.63
2022-10-22T11:35:25.819Z,97980.78
2022-10-22T11:37:55.454Z,97977.22
2022-10-22T11:40:33.029Z,97985.13
2022-10-22T11:43:08.048Z,97984.16
2022-10-22T11:45:37.935Z,97981.72
2022-10-22T11:48:11.230Z,97988.09
2022-10-22T11:50:41.019Z,97987.63
2022-10-22T11:53:13.807Z,97985.69
2022-10-22T11:55:48.594Z,97979.50
2022-10-22T11:58:32.320Z,97980.13
2022-10-22T12:01:02.131Z,97986.47
2022-10-22T12:03:32.200Z,97991.91
2022-10-22T12:06:05.042Z,97999.25
2022-10-22T12:08:33.159Z,97989.28
2022-10-22T12:11:06.493Z,97996.38
2022-10-22T12:14:09.786Z,97986.88
2022-10-22T12:16:56.556Z,97985.41
2022-10-22T12:19:37.550Z,97982.38
2022-10-22T12:22:07.633Z,97981.56
2022-10-22T12:24:38.527Z,97986.28
2022-10-22T12:27:25.857Z,97984.25
2022-10-22T12:29:58.125Z,97986.59
2022-10-22T12:32:36.332Z,97988.09
2022-10-22T12:35:08.617Z,97984.91
2022-10-22T12:37:37.168Z,97980.00
2022-10-22T12:40:18.756Z,97983.97
2022-10-22T12:43:14.418Z,97977.88
2022-10-22T12:45:44.023Z,97975.69
2022-10-22T12:48:17.663Z,97973.59
2022-10-22T12:50:53.454Z,97971.31
2022-10-22T12:53:32.870Z,97978.81
2022-10-22T12:56:03.020Z,97973.50
2022-10-22T12:58:36.655Z,97975.41
2022-10-22T13:01:04.364Z,97986.47
2022-10-22T13:03:42.376Z,97985.00
2022-10-22T13:06:14.048Z,97981.91
2022-10-22T13:08:41.443Z,97982.47
2022-10-22T13:11:10.973Z,97981.50
2022-10-22T13:13:38.023Z,97984.19
2022-10-22T13:16:25.671Z,97980.03
2022-10-22T13:18:54.107Z,97984.91
2022-10-22T13:21:33.487Z,97999.47
2022-10-22T13:24:03.058Z,97992.13
2022-10-22T13:26:37.427Z,97989.06
2022-10-22T13:29:10.705Z,97995.91
2022-10-22T13:31:46.529Z,97989.06
2022-10-22T13:34:17.416Z,97989.38
2022-10-22T13:36:44.619Z,98003.19
2022-10-22T13:39:20.888Z,97984.31
2022-10-22T13:41:50.503Z,97995.53
2022-10-22T13:44:18.530Z,97990.19
2022-10-22T13:46:47.226Z,97999.84
2022-10-22T13:49:16.876Z,97988.38
2022-10-22T13:51:44.216Z,97985.75
2022-10-22T13:54:19.925Z,97989.81
2022-10-22T13:56:47.001Z,97999.44
2022-10-22T13:59:15.409Z,97993.75
2022-10-22T14:01:45.043Z,97994.16
2022-10-22T14:04:13.695Z,98003.03
2022-10-22T14:06:40.777Z,97995.88
2022-10-22T14:09:11.930Z,97994.41
2022-10-22T14:11:39.106Z,97990.19
2022-10-22T14:14:08.987Z,97997.34
2022-10-22T14:16:37.756Z,97997.50
2022-10-22T14:19:07.570Z,98000.09
2022-10-22T14:21:36.953Z,97996.13
2022-10-22T14:24:06.118Z,98005.97
2022-10-22T14:26:35.540Z,97999.63
2022-10-22T14:29:11.698Z,98011.78
2022-10-22T14:34:14.287Z,98021.00
2022-10-22T14:36:43.684Z,98022.53
2022-10-22T14:39:11.366Z,98020.91
2022-10-22T14:41:38.474Z,98024.41
2022-10-22T14:44:05.772Z,98022.94
2022-10-22T14:46:32.933Z,98020.72
2022-10-22T14:48:59.997Z,98035.09
2022-10-22T14:51:27.026Z,98031.44
2022-10-22T14:53:54.054Z,98035.00
2022-10-22T14:56:21.431Z,98029.69
2022-10-22T14:58:49.046Z,98029.75
2022-10-22T15:01:16.440Z,98039.19
2022-10-22T15:03:43.640Z,98040.13
2022-10-22T15:06:10.777Z,98037.63
2022-10-22T15:08:38.082Z,98043.53
2022-10-22T15:11:07.740Z,98043.03
2022-10-22T15:13:35.450Z,98048.94
2022-10-22T15:16:06.348Z,98044.38
2022-10-22T15:18:33.438Z,98052.31
2022-10-22T15:21:02.896Z,98056.00
2022-10-22T15:23:30.398Z,98062.34
2022-10-22T15:25:57.593Z,98065.13
2022-10-22T15:28:25.056Z,98067.72
2022-10-22T15:31:00.270Z,98076.03
2022-10-22T15:33:28.860Z,98075.88
2022-10-22T15:35:56.472Z,98079.78
2022-10-22T15:38:32.615Z,98090.28
2022-10-22T15:41:05.526Z,98086.44
2022-10-22T15:43:33.961Z,98097.84
2022-10-22T15:46:11.694Z,98097.50
2022-10-22T15:48:38.836Z,98097.13
2022-10-22T15:51:13.663Z,98101.38
2022-10-22T15:53:40.806Z,98104.91
2022-10-22T15:56:08.811Z,98109.31
2022-10-22T15:58:35.882Z,98103.22
2022-10-22T16:01:11.891Z,98105.44
2022-10-22T16:03:39.268Z,98112.97
2022-10-22T16:06:07.041Z,98111.88
2022-10-22T16:08:34.223Z,98118.88
2022-10-22T16:11:01.416Z,98108.03
2022-10-22T16:13:28.665Z,98115.94
2022-10-22T16:15:55.731Z,98121.06
2022-10-22T16:18:23.636Z,98122.00
2022-10-22T16:20:50.753Z,98121.06
2022-10-22T16:23:18.992Z,98123.25
2022-10-22T16:25:46.742Z,98126.00
2022-10-22T16:28:14.334Z,98128.38
2022-10-22T16:30:41.752Z,98129.84
2022-10-22T16:33:10.396Z,98133.88
2022-10-22T16:35:41.736Z,98133.72
2022-10-22T16:38:10.587Z,98136.81
2022-10-22T16:40:38.014Z,98142.13
2022-10-22T16:43:05.714Z,98149.31
2022-10-22T16:45:32.840Z,98159.03
2022-10-22T16:47:59.939Z,98155.88
2022-10-22T16:50:27.043Z,98165.78
2022-10-22T16:52:54.212Z,98164.47
2022-10-22T16:55:21.292Z,98164.09
2022-10-22T16:57:52.265Z,98174.53
2022-10-22T17:00:20.249Z,98171.94
2022-10-22T17:02:53.788Z,98181.31
2022-10-22T17:05:21.470Z,98182.75
2022-10-22T17:07:48.667Z,98171.31
2022-10-22T17:10:17.137Z,98173.53
2022-10-22T17:12:44.530Z,98172.75
2022-10-22T17:15:12.141Z,98171.25
2022-10-22T17:17:39.462Z,98169.41
2022-10-22T17:20:07.009Z,98181.47
2022-10-22T17:22:34.125Z,98192.09
2022-10-22T17:25:06.916Z,98195.94
2022-10-22T17:27:33.995Z,98195.72
2022-10-22T17:30:01.048Z,98197.00
2022-10-22T17:32:29.895Z,98206.50
2022-10-22T17:34:57.007Z,98216.38
2022-10-22T17:37:24.086Z,98217.06
2022-10-22T17:39:51.307Z,98231.84
2022-10-22T17:42:18.420Z,98217.16
2022-10-22T17:44:45.491Z,98228.16
2022-10-22T17:47:12.578Z,98221.19
2022-10-22T17:49:39.785Z,98224.13
2022-10-22T17:52:07.051Z,98232.94
2022-10-22T17:54:34.218Z,98231.47
2022-10-22T17:57:01.276Z,98232.94
2022-10-22T17:59:28.525Z,98236.53
2022-10-22T18:01:59.414Z,98240.19
2022-10-22T18:04:27.591Z,98233.22
2022-10-22T18:06:54.920Z,98233.00
2022-10-22T18:09:22.132Z,98231.31
2022-10-22T18:11:51.716Z,98233.72
2022-10-22T18:14:20.099Z,98236.16
2022-10-22T18:16:47.650Z,98235.50
2022-10-22T18:19:17.065Z,98230.19
2022-10-22T18:21:44.282Z,98230.06
2022-10-22T18:24:13.262Z,98227.81
2022-10-22T18:26:40.295Z,98233.56
2022-10-22T18:29:08.035Z,98230.47
2022-10-22T18:31:35.697Z,98225.88
2022-10-22T18:34:02.885Z,98230.53
2022-10-22T18:36:29.992Z,98233.28
2022-10-22T18:38:58.987Z,98232.53
2022-10-22T18:41:27.621Z,98231.25
2022-10-22T18:44:02.664Z,98237.69
2022-10-22T18:46:30.832Z,98234.59
2022-10-22T18:48:58.810Z,98235.00
2022-10-22T18:51:30.070Z,98231.72
2022-10-22T18:54:11.359Z,98234.47
2022-10-22T18:56:44.320Z,98226.00
2022-10-22T18:59:22.866Z,98232.09
2022-10-22T19:01:51.490Z,98233.56
2022-10-22T19:04:18.663Z,98239.47
2022-10-22T19:06:46.121Z,98241.69
2022-10-22T19:09:16.978Z,98243.56
2022-10-22T19:11:44.928Z,98244.50
2022-10-22T19:14:13.078Z,98248.91
2022-10-22T19:16:40.246Z,98244.69
2022-10-22T19:19:08.030Z,98250.91
2022-10-22T19:21:35.500Z,98254.81
2022-10-22T19:24:02.605Z,98259.78
2022-10-22T19:26:30.361Z,98248.41
2022-10-22T19:28:58.458Z,98251.38
2022-10-22T19:31:26.829Z,98244.38
2022-10-22T19:33:55.299Z,98244.59
2022-10-22T19:36:27.923Z,98248.81
2022-10-22T19:38:55.822Z,98244.41
2022-10-22T19:41:25.116Z,98249.19
2022-10-22T19:43:53.394Z,98242.22
2022-10-22T19:46:21.868Z,98250.28
2022-10-22T19:48:51.229Z,98254.69
2022-10-22T19:51:20.616Z,98252.47
2022-10-22T19:53:48.323Z,98260.94
2022-10-22T19:56:18.444Z,98264.09
2022-10-22T19:58:45.839Z,98265.00
2022-10-22T20:01:15.532Z,98273.28
2022-10-22T20:03:42.682Z,98278.22
2022-10-22T20:06:11.532Z,98282.81
2022-10-22T20:08:39.258Z,98274.91
2022-10-22T20:11:12.330Z,98282.22
2022-10-22T20:16:11.866Z,98282.53
2022-10-22T20:18:38.998Z,98288.91
2022-10-22T20:21:07.659Z,98289.81
2022-10-22T20:23:35.218Z,98289.41
2022-10-22T20:26:02.311Z,98286.25
2022-10-22T20:28:29.393Z,98292.25
2022-10-22T20:30:56.676Z,98293.31
2022-10-22T20:33:23.833Z,98285.72
2022-10-22T20:36:00.978Z,98287.69
2022-10-22T20:38:28.204Z,98289.84
2022-10-22T20:41:06.784Z,98293.25
2022-10-22T20:43:34.069Z,98302.53
2022-10-22T20:46:01.227Z,98298.97
2022-10-22T20:48:31.234Z,98303.91
2022-10-22T20:50:59.191Z,98303.06
2022-10-22T20:53:27.309Z,98302.47
2022-10-22T20:55:57.755Z,98302.03
2022-10-22T20:58:26.953Z,98306.50
2022-10-22T21:00:54.977Z,98304.63
2022-10-22T21:03:22.688Z,98312.25
2022-10-22T21:05:50.203Z,98323.38
2022-10-22T21:08:17.818Z,98324.44
2022-10-22T21:10:46.491Z,98320.84
2022-10-22T21:13:14.024Z,98327.72
2022-10-22T21:15:41.495Z,98325.09
2022-10-22T21:18:09.135Z,98323.72
2022-10-22T21:20:36.743Z,98314.88
2022-10-22T21:23:04.034Z,98317.81
2022-10-22T21:25:31.555Z,98331.41
2022-10-22T21:27:58.637Z,98322.03
2022-10-22T21:30:25.753Z,98323.41
2022-10-22T21:32:56.015Z,98328.53
2022-10-22T21:35:23.470Z,98327.38
2022-10-22T21:37:50.738Z,98327.91
2022-10-22T21:40:17.906Z,98326.72
2022-10-22T21:42:44.978Z,98329.25
2022-10-22T21:45:13.607Z,98316.38
2022-10-22T21:47:42.096Z,98327.25
2022-10-22T21:50:09.516Z,98316.88
2022-10-22T21:52:36.598Z,98311.41
2022-10-22T21:55:03.902Z,98315.16
2022-10-22T21:57:31.076Z,98314.97
2022-10-22T21:59:58.170Z,98318.75
2022-10-22T22:02:27.232Z,98321.50
2022-10-22T22:04:54.886Z,98319.50
2022-10-22T22:07:22.133Z,98315.16
2022-10-22T22:09:52.303Z,98317.66
2022-10-22T22:12:20.502Z,98315.75
2022-10-22T22:14:47.665Z,98324.50
2022-10-22T22:17:16.440Z,98318.28
2022-10-22T22:19:43.562Z,98316.78
2022-10-22T22:22:10.797Z,98316.78
2022-10-22T22:24:39.681Z,98315.84
2022-10-22T22:27:06.934Z,98317.41
2022-10-22T22:29:34.443Z,98315.50
2022-10-22T22:32:01.544Z,98319.78
2022-10-22T22:34:28.656Z,98311.88
2022-10-22T22:36:55.776Z,98310.19
2022-10-22T22:39:24.001Z,98307.53
2022-10-22T22:41:51.253Z,98305.72
2022-10-22T22:44:18.576Z,98314.47
2022-10-22T22:46:45.638Z,98318.47
2022-10-22T22:49:13.577Z,98312.25
2022-10-22T22:51:40.743Z,98321.75
2022-10-22T22:54:08.140Z,98314.06
2022-10-22T22:56:35.496Z,98318.13
2022-10-22T22:59:03.763Z,98311.16
2022-10-22T23:01:38.967Z,98322.34
2022-10-22T23:04:19.018Z,98322.34
2022-10-22T23:06:46.394Z,98322.78
2022-10-22T23:09:15.272Z,98317.75
2022-10-22T23:11:43.783Z,98319.88
2022-10-22T23:14:14.078Z,98320.09
2022-10-22T23:16:45.352Z,98324.03
2022-10-22T23:19:14.539Z,98318.97
2022-10-22T23:21:45.540Z,98319.19
2022-10-22T23:24:15.341Z,98317.41
2022-10-22T23:26:45.100Z,98325.13
2022-10-22T23:29:21.161Z,98318.38
2022-10-22T23:31:48.724Z,98321.63
2022-10-22T23:34:21.672Z,98325.13
2022-10-22T23:36:49.829Z,98320.66
2022-10-22T23:39:19.633Z,98324.75
2022-10-22T23:41:46.727Z,98318.63
2022-10-22T23:44:13.911Z,98310.19
2022-10-22T23:46:41.267Z,98309.66
2022-10-22T23:49:09.728Z,98305.72
2022-10-22T23:51:37.626Z,98295.50
2022-10-22T23:54:11.092Z,98292.25
2022-10-22T23:56:38.437Z,98286.75
2022-10-22T23:59:05.780Z,98288.75
